Time;durP1;ratioP1;P1;durP2;ratioP2;P2;SDS_P1;SDS_P2;PMS_P1;PMS_P2;Temp;Humidity;BMP_temperature;BMP_pressure;BME280_temperature;BME280_humidity;BME280_pressure;Samples;Min_cycle;Max_cycle;Signal;HPM_P1;HPM_P2
2023/08/31 00:00:10;;;;;;;5.75;3.47;;;11.60;99.90;;;;;;4998528;28;90051;-35
2023/08/31 00:02:36;;;;;;;6.20;3.60;;;11.60;99.90;;;;;;4998431;28;90515;-39
2023/08/31 00:05:03;;;;;;;7.35;3.65;;;11.60;99.90;;;;;;4997983;28;89789;-39
2023/08/31 00:07:29;;;;;;;5.32;4.00;;;11.60;99.90;;;;;;4999078;28;89502;-38
2023/08/31 00:09:55;;;;;;;3.75;3.45;;;11.60;99.90;;;;;;4998487;28;88681;-38
2023/08/31 00:12:22;;;;;;;5.60;3.75;;;11.50;99.90;;;;;;4998088;28;90441;-35
2023/08/31 00:14:49;;;;;;;5.90;4.03;;;11.50;99.90;;;;;;4998091;28;90632;-36
2023/08/31 00:17:15;;;;;;;7.65;4.35;;;11.50;99.90;;;;;;4998272;28;90411;-33
2023/08/31 00:19:40;;;;;;;2.47;1.85;;;11.40;99.90;;;;;;4998595;28;89476;-36
2023/08/31 00:22:06;;;;;;;7.10;3.83;;;11.40;99.90;;;;;;4998908;28;89960;-34
2023/08/31 00:24:35;;;;;;;6.65;3.97;;;11.40;99.90;;;;;;4997371;28;89542;-37
2023/08/31 00:27:03;;;;;;;5.53;3.33;;;11.40;99.90;;;;;;4998010;28;89366;-33
2023/08/31 00:29:29;;;;;;;6.37;4.97;;;11.40;99.90;;;;;;5000294;28;89437;-37
2023/08/31 00:31:55;;;;;;;5.10;3.95;;;11.40;99.90;;;;;;5002175;28;89158;-32
2023/08/31 00:34:21;;;;;;;6.43;4.03;;;11.40;99.90;;;;;;5001383;28;89507;-32
2023/08/31 00:36:48;;;;;;;12.02;5.00;;;11.40;99.90;;;;;;5001746;28;90132;-34
2023/08/31 00:39:14;;;;;;;4.45;3.80;;;11.30;99.90;;;;;;5000803;28;90418;-34
2023/08/31 00:41:39;;;;;;;8.25;4.32;;;11.30;99.90;;;;;;4993152;28;90128;-34
2023/08/31 00:44:05;;;;;;;5.95;4.15;;;11.30;99.90;;;;;;5001516;28;88427;-36
2023/08/31 00:46:32;;;;;;;9.70;4.60;;;11.30;99.90;;;;;;5000988;28;89260;-34
2023/08/31 00:48:58;;;;;;;7.03;4.45;;;11.30;99.90;;;;;;5001912;28;88294;-36
2023/08/31 00:51:24;;;;;;;6.93;4.10;;;11.20;99.90;;;;;;4989159;28;89456;-37
2023/08/31 00:53:54;;;;;;;6.55;4.43;;;11.20;99.90;;;;;;4999401;28;89964;-33
2023/08/31 00:56:20;;;;;;;11.30;4.72;;;11.20;99.90;;;;;;5000899;28;89059;-39
2023/08/31 00:58:46;;;;;;;8.50;4.68;;;11.20;99.90;;;;;;5002102;28;89915;-34
2023/08/31 01:01:37;;;;;;;6.13;2.92;;;11.20;99.90;;;;;;5001286;28;90550;-35
2023/08/31 01:04:22;;;;;;;5.20;4.68;;;11.20;99.90;;;;;;4996178;28;90097;-39
2023/08/31 01:07:21;;;;;;;7.30;5.00;;;11.30;99.90;;;;;;4982697;28;89919;-34
2023/08/31 01:09:53;;;;;;;11.85;5.47;;;11.30;99.90;;;;;;4966802;28;88553;-32
2023/08/31 01:12:49;;;;;;;6.70;4.85;;;11.30;99.90;;;;;;5001707;28;90254;-33
2023/08/31 01:15:16;;;;;;;6.28;3.95;;;11.20;99.90;;;;;;4993962;28;89384;-33
2023/08/31 01:17:48;;;;;;;8.38;4.07;;;11.20;99.90;;;;;;5000467;28;90012;-34
2023/08/31 01:20:19;;;;;;;4.40;4.00;;;11.30;99.90;;;;;;5001514;28;90246;-32
2023/08/31 01:23:04;;;;;;;5.90;4.25;;;11.30;99.90;;;;;;5001324;28;89217;-33
2023/08/31 01:25:30;;;;;;;6.78;4.57;;;11.30;99.90;;;;;;4999923;28;89249;-38
2023/08/31 01:27:58;;;;;;;6.13;3.78;;;11.30;99.90;;;;;;5000271;28;89642;-37
2023/08/31 01:30:23;;;;;;;5.68;4.03;;;11.30;99.90;;;;;;4999478;28;90264;-36
2023/08/31 01:32:49;;;;;;;7.05;3.83;;;11.30;99.90;;;;;;5000940;28;91908;-34
2023/08/31 01:35:17;;;;;;;5.13;4.63;;;11.30;99.90;;;;;;5000285;28;90905;-34
2023/08/31 01:37:51;;;;;;;;;;;11.30;99.90;;;;;;5001808;28;89240;-34
2023/08/31 01:40:38;;;;;;;4.00;2.45;;;11.20;99.90;;;;;;5001340;28;88204;-38
2023/08/31 01:43:06;;;;;;;4.13;3.83;;;11.20;99.90;;;;;;5000390;28;89733;-37
2023/08/31 01:45:35;;;;;;;10.33;4.03;;;11.20;99.90;;;;;;5000495;28;89947;-40
2023/08/31 01:48:01;;;;;;;2.28;2.00;;;11.20;99.90;;;;;;4982293;28;88843;-40
2023/08/31 01:50:27;;;;;;;3.55;2.22;;;11.10;99.90;;;;;;4988450;28;88801;-35
2023/08/31 01:52:53;;;;;;;5.50;3.63;;;11.10;99.90;;;;;;4991734;28;90261;-34
2023/08/31 01:55:19;;;;;;;7.72;3.58;;;11.10;99.90;;;;;;4999650;28;90484;-35
2023/08/31 01:57:44;;;;;;;6.43;4.50;;;11.10;99.90;;;;;;5000292;28;91417;-34
2023/08/31 02:00:11;;;;;;;4.45;3.88;;;11.10;99.90;;;;;;5000761;28;88609;-33
2023/08/31 02:02:36;;;;;;;8.05;3.85;;;11.10;99.90;;;;;;5000312;28;91781;-34
2023/08/31 02:05:04;;;;;;;9.05;4.60;;;11.10;99.90;;;;;;4999753;28;89773;-35
2023/08/31 02:07:30;;;;;;;4.90;4.33;;;11.10;99.90;;;;;;4999800;28;89256;-38
2023/08/31 02:09:55;;;;;;;2.78;2.33;;;11.10;99.90;;;;;;5000350;28;88585;-35
2023/08/31 02:12:21;;;;;;;5.55;4.25;;;11.10;99.90;;;;;;4999687;28;88637;-37
2023/08/31 02:14:47;;;;;;;3.67;2.53;;;11.00;99.90;;;;;;5000281;28;89626;-36
2023/08/31 02:17:12;;;;;;;8.95;4.80;;;11.00;99.90;;;;;;4999582;28;90104;-34
2023/08/31 02:19:38;;;;;;;5.05;2.95;;;11.00;99.90;;;;;;4999939;28;89494;-36
2023/08/31 02:22:04;;;;;;;7.65;5.15;;;11.00;99.90;;;;;;4998956;28;90329;-37
2023/08/31 02:24:30;;;;;;;7.32;4.68;;;11.00;99.90;;;;;;4999729;28;89746;-33
2023/08/31 02:26:56;;;;;;;6.13;4.90;;;11.00;99.90;;;;;;5000571;28;88866;-32
2023/08/31 02:29:22;;;;;;;4.07;3.05;;;11.00;99.90;;;;;;4999706;28;89275;-38
2023/08/31 02:31:48;;;;;;;6.07;4.32;;;11.00;99.90;;;;;;4999406;28;89721;-35
2023/08/31 02:34:13;;;;;;;5.95;5.32;;;10.90;99.90;;;;;;4999671;28;89299;-35
2023/08/31 02:36:39;;;;;;;6.20;5.60;;;10.90;99.90;;;;;;4999567;28;89071;-35
2023/08/31 02:39:06;;;;;;;8.25;6.13;;;10.90;99.90;;;;;;5000365;28;89672;-34
2023/08/31 02:41:31;;;;;;;5.43;4.95;;;11.00;99.90;;;;;;4998539;28;90309;-38
2023/08/31 02:43:57;;;;;;;10.82;6.75;;;11.00;99.90;;;;;;4999485;28;90206;-33
2023/08/31 02:46:23;;;;;;;7.57;6.82;;;11.00;99.90;;;;;;4999506;28;90617;-33
2023/08/31 02:48:50;;;;;;;8.18;6.35;;;11.00;99.90;;;;;;4999550;28;88496;-37
2023/08/31 02:51:15;;;;;;;6.57;3.95;;;11.00;99.90;;;;;;4998911;28;90401;-38
2023/08/31 02:53:41;;;;;;;7.47;6.78;;;11.00;99.90;;;;;;4998780;28;89537;-33
2023/08/31 02:56:07;;;;;;;7.85;6.00;;;11.00;99.90;;;;;;4999723;28;90083;-33
2023/08/31 02:58:33;;;;;;;7.50;6.80;;;11.00;99.90;;;;;;4999642;28;89446;-35
2023/08/31 03:01:11;;;;;;;5.10;3.70;;;11.00;99.90;;;;;;4999022;28;90543;-36
2023/08/31 03:03:37;;;;;;;8.52;6.20;;;11.10;99.90;;;;;;4999289;28;89511;-35
2023/08/31 03:06:03;;;;;;;7.43;6.40;;;11.00;99.90;;;;;;4998873;28;89614;-33
2023/08/31 03:08:28;;;;;;;7.90;6.18;;;11.00;99.90;;;;;;4998818;28;89936;-33
2023/08/31 03:10:56;;;;;;;4.95;4.18;;;11.10;99.90;;;;;;4998798;28;88856;-36
2023/08/31 03:13:22;;;;;;;9.18;7.28;;;11.00;99.90;;;;;;4999754;28;89712;-33
2023/08/31 03:15:47;;;;;;;7.05;6.35;;;11.00;99.90;;;;;;4998375;28;89475;-37
2023/08/31 03:18:13;;;;;;;12.00;5.85;;;11.10;99.90;;;;;;4999230;28;89389;-33
2023/08/31 03:20:39;;;;;;;7.07;6.45;;;11.00;99.90;;;;;;4998199;28;90228;-34
2023/08/31 03:23:04;;;;;;;8.93;7.40;;;11.00;99.90;;;;;;4999004;28;90995;-33
2023/08/31 03:25:30;;;;;;;8.55;5.30;;;11.00;99.90;;;;;;4998027;28;90201;-35
2023/08/31 03:27:56;;;;;;;5.00;3.83;;;11.00;99.90;;;;;;4998825;28;89089;-40
2023/08/31 03:30:21;;;;;;;6.57;5.97;;;11.00;99.90;;;;;;4998631;28;90292;-32
2023/08/31 03:32:47;;;;;;;8.57;3.95;;;11.00;99.90;;;;;;4998207;28;90994;-34
2023/08/31 03:35:13;;;;;;;7.65;4.05;;;10.90;99.90;;;;;;4979869;28;89922;-37
2023/08/31 03:37:38;;;;;;;5.15;4.35;;;10.90;99.90;;;;;;4999075;28;88881;-34
2023/08/31 03:40:06;;;;;;;7.80;7.03;;;10.90;99.90;;;;;;4998395;28;90275;-37
2023/08/31 03:42:33;;;;;;;8.40;7.57;;;10.90;99.90;;;;;;4998782;28;89626;-39
2023/08/31 03:44:59;;;;;;;8.90;8.00;;;10.90;99.90;;;;;;4998600;28;89761;-34
2023/08/31 03:47:24;;;;;;;8.88;8.05;;;10.90;99.90;;;;;;4998236;28;89042;-40
2023/08/31 03:49:50;;;;;;;5.30;4.13;;;10.90;99.90;;;;;;4986742;28;90572;-33
2023/08/31 03:52:16;;;;;;;10.65;8.65;;;10.90;99.90;;;;;;4984836;28;89667;-35
2023/08/31 03:54:41;;;;;;;9.00;8.10;;;10.90;99.90;;;;;;4999222;28;89729;-33
2023/08/31 03:57:07;;;;;;;9.75;8.75;;;10.90;99.90;;;;;;4997286;28;90206;-39
2023/08/31 03:59:33;;;;;;;7.20;5.63;;;10.90;99.90;;;;;;4998966;28;90410;-40
2023/08/31 04:01:59;;;;;;;7.30;5.18;;;10.90;99.90;;;;;;4998354;28;89414;-34
2023/08/31 04:04:24;;;;;;;10.75;9.15;;;10.90;99.90;;;;;;4984339;28;89988;-34
2023/08/31 04:06:50;;;;;;;9.68;8.68;;;10.90;99.90;;;;;;4999300;28;87934;-36
2023/08/31 04:09:16;;;;;;;5.70;5.18;;;11.00;99.90;;;;;;4997511;28;90289;-37
2023/08/31 04:11:41;;;;;;;8.95;7.80;;;11.00;99.90;;;;;;4998936;28;89544;-33
2023/08/31 04:14:07;;;;;;;8.68;7.85;;;10.90;99.90;;;;;;4998735;28;90168;-37
2023/08/31 04:16:32;;;;;;;9.07;8.18;;;11.00;99.90;;;;;;4999310;28;87689;-36
2023/08/31 04:18:58;;;;;;;7.35;5.50;;;10.90;99.90;;;;;;4998296;28;89876;-33
2023/08/31 04:21:24;;;;;;;11.88;8.85;;;10.90;99.90;;;;;;4997210;28;91061;-37
2023/08/31 04:23:49;;;;;;;5.22;4.72;;;10.90;99.90;;;;;;4997965;28;90912;-34
2023/08/31 04:26:17;;;;;;;5.25;4.75;;;11.00;99.90;;;;;;4998034;28;88181;-35
2023/08/31 04:28:43;;;;;;;9.07;8.17;;;11.00;99.90;;;;;;4993365;28;90303;-37
2023/08/31 04:31:09;;;;;;;5.72;4.63;;;10.90;99.90;;;;;;4991367;28;89663;-39
2023/08/31 04:33:35;;;;;;;9.10;8.30;;;11.00;99.90;;;;;;4996521;28;89198;-34
2023/08/31 04:36:01;;;;;;;9.10;8.20;;;10.90;99.90;;;;;;4998135;28;88664;-37
2023/08/31 04:38:27;;;;;;;64.93;48.03;;;11.00;99.90;;;;;;4996985;28;90550;-34
2023/08/31 04:40:52;;;;;;;4.65;3.90;;;11.00;99.90;;;;;;4996972;28;89625;-33
2023/08/31 04:43:18;;;;;;;5.75;4.18;;;11.00;99.90;;;;;;4998102;28;89846;-36
2023/08/31 04:45:44;;;;;;;5.82;5.22;;;11.00;99.90;;;;;;4997373;28;89312;-38
2023/08/31 04:48:09;;;;;;;8.60;7.55;;;11.00;99.90;;;;;;4997618;28;90052;-34
2023/08/31 04:50:35;;;;;;;7.53;6.80;;;11.00;99.90;;;;;;4992568;28;90052;-34
2023/08/31 04:53:01;;;;;;;4.78;4.28;;;11.10;99.90;;;;;;4993117;28;90128;-34
2023/08/31 04:55:26;;;;;;;7.57;6.40;;;11.00;99.90;;;;;;4998097;28;89870;-33
2023/08/31 04:57:52;;;;;;;4.50;3.97;;;11.00;99.90;;;;;;4997317;28;89640;-36
2023/08/31 05:00:18;;;;;;;8.95;6.65;;;11.00;99.90;;;;;;4997539;28;89352;-35
2023/08/31 05:02:44;;;;;;;21.88;4.75;;;11.10;99.90;;;;;;4997699;28;90149;-33
2023/08/31 05:05:10;;;;;;;9.80;6.88;;;11.10;99.90;;;;;;4997609;28;89984;-35
2023/08/31 05:07:35;;;;;;;5.57;3.92;;;11.10;99.90;;;;;;4997612;28;91344;-33
2023/08/31 05:10:01;;;;;;;6.13;4.60;;;11.10;99.90;;;;;;4997060;28;90578;-35
2023/08/31 05:12:27;;;;;;;5.10;4.00;;;11.10;99.90;;;;;;4997484;28;89906;-35
2023/08/31 05:14:52;;;;;;;8.35;7.55;;;11.10;99.90;;;;;;4997728;28;87981;-35
2023/08/31 05:17:18;;;;;;;8.38;6.43;;;11.10;99.90;;;;;;5000167;28;90902;-34
2023/08/31 05:19:44;;;;;;;7.53;3.58;;;11.10;99.90;;;;;;4993994;28;89819;-39
2023/08/31 05:22:09;;;;;;;9.70;7.13;;;11.10;99.90;;;;;;4996663;28;89197;-33
2023/08/31 05:24:35;;;;;;;6.43;5.78;;;11.10;99.90;;;;;;4999300;28;90782;-33
2023/08/31 05:27:00;;;;;;;2.97;2.45;;;11.10;99.90;;;;;;4998071;28;90020;-33
2023/08/31 05:29:26;;;;;;;6.88;6.05;;;11.10;99.90;;;;;;4999111;28;88979;-35
2023/08/31 05:31:53;;;;;;;4.35;3.92;;;11.10;99.90;;;;;;4998073;28;88597;-37
2023/08/31 05:34:21;;;;;;;6.35;5.20;;;11.10;99.90;;;;;;4997571;28;89549;-35
2023/08/31 05:36:46;;;;;;;;;;;11.20;99.90;;;;;;4998912;28;90668;-34
2023/08/31 05:39:12;;;;;;;5.70;3.63;;;11.20;99.90;;;;;;4999382;28;90863;-38
2023/08/31 05:41:40;;;;;;;6.68;5.28;;;11.20;99.90;;;;;;4997782;28;89206;-35
2023/08/31 05:44:08;;;;;;;7.35;6.00;;;11.30;99.90;;;;;;4999244;28;88307;-36
2023/08/31 05:46:33;;;;;;;4.10;2.95;;;11.30;99.90;;;;;;4998890;28;89485;-37
2023/08/31 05:48:59;;;;;;;6.10;3.70;;;11.30;99.90;;;;;;4997509;28;89917;-36
2023/08/31 05:51:24;;;;;;;6.07;3.95;;;11.40;99.90;;;;;;4981009;28;90732;-35
2023/08/31 05:53:50;;;;;;;12.07;6.63;;;11.50;99.90;;;;;;4997403;28;89804;-35
2023/08/31 05:56:16;;;;;;;7.05;6.43;;;11.50;99.90;;;;;;4997050;28;90060;-35
2023/08/31 05:58:41;;;;;;;10.90;6.97;;;11.50;99.90;;;;;;4998239;28;90519;-32
2023/08/31 06:01:07;;;;;;;5.88;3.72;;;11.60;99.90;;;;;;4997902;28;90114;-37
2023/08/31 06:03:33;;;;;;;7.18;6.47;;;11.60;99.90;;;;;;4998546;28;89727;-34
2023/08/31 06:05:59;;;;;;;12.18;7.03;;;11.70;99.90;;;;;;4997849;28;90395;-33
2023/08/31 06:08:25;;;;;;;7.28;6.30;;;11.70;99.90;;;;;;4998756;28;90478;-33
2023/08/31 06:10:51;;;;;;;8.57;7.13;;;11.80;99.90;;;;;;4997785;28;89255;-33
2023/08/31 06:13:17;;;;;;;8.70;7.28;;;11.80;99.90;;;;;;4997942;28;88549;-34
2023/08/31 06:15:44;;;;;;;4.65;4.22;;;11.80;99.90;;;;;;4998049;28;90092;-38
2023/08/31 06:18:10;;;;;;;7.60;6.82;;;11.90;99.90;;;;;;4997431;28;91143;-37
2023/08/31 06:20:36;;;;;;;6.45;5.90;;;11.90;99.90;;;;;;4998537;28;89552;-37
2023/08/31 06:23:02;;;;;;;9.05;6.47;;;12.00;99.90;;;;;;4998435;28;90056;-33
2023/08/31 06:25:27;;;;;;;9.60;6.82;;;12.10;99.90;;;;;;4995487;28;89097;-33
2023/08/31 06:27:53;;;;;;;9.18;6.90;;;12.10;99.90;;;;;;4997258;28;89986;-38
2023/08/31 06:30:19;;;;;;;8.32;7.07;;;12.20;99.90;;;;;;4997117;28;89579;-37
2023/08/31 06:32:46;;;;;;;13.80;7.07;;;12.30;99.90;;;;;;4997359;28;88701;-38
2023/08/31 06:35:13;;;;;;;6.45;3.22;;;12.30;99.90;;;;;;4997667;28;89837;-37
2023/08/31 06:37:42;;;;;;;4.95;4.28;;;12.40;99.90;;;;;;4998049;28;90652;-34
2023/08/31 06:40:09;;;;;;;8.00;6.22;;;12.50;99.90;;;;;;4997076;28;90158;-35
2023/08/31 06:42:38;;;;;;;9.30;6.82;;;12.60;99.90;;;;;;4997706;28;89768;-39
2023/08/31 06:45:05;;;;;;;9.45;6.50;;;12.70;99.90;;;;;;4996995;28;90926;-36
2023/08/31 06:47:31;;;;;;;9.15;6.43;;;12.80;99.90;;;;;;4995884;28;89683;-36
2023/08/31 06:49:57;;;;;;;6.68;6.07;;;12.90;99.90;;;;;;4996896;28;90191;-36
2023/08/31 06:52:24;;;;;;;11.88;6.28;;;13.00;99.90;;;;;;4990995;28;88212;-36
2023/08/31 06:54:50;;;;;;;9.40;6.28;;;13.20;99.90;;;;;;4996355;28;90006;-36
2023/08/31 06:57:16;;;;;;;8.25;5.22;;;13.40;99.90;;;;;;4996679;28;90074;-36
2023/08/31 06:59:41;;;;;;;6.30;5.70;;;13.50;99.90;;;;;;4996872;28;89226;-34
2023/08/31 07:02:07;;;;;;;9.13;6.10;;;13.60;99.90;;;;;;4996597;28;89288;-34
2023/08/31 07:04:32;;;;;;;6.10;5.43;;;13.70;99.90;;;;;;4996603;28;90172;-35
2023/08/31 07:06:58;;;;;;;6.65;5.50;;;13.90;99.90;;;;;;4997313;28;89659;-34
2023/08/31 07:09:23;;;;;;;6.65;6.05;;;14.00;99.90;;;;;;4995186;28;88903;-34
2023/08/31 07:11:49;;;;;;;5.13;4.72;;;14.10;99.90;;;;;;4996696;28;88944;-36
2023/08/31 07:14:15;;;;;;;4.97;4.50;;;14.30;99.90;;;;;;4996168;28;90254;-35
2023/08/31 07:16:40;;;;;;;10.85;5.93;;;14.40;99.90;;;;;;4996200;28;89487;-34
2023/08/31 07:19:06;;;;;;;6.53;4.82;;;14.50;99.90;;;;;;4996440;28;89560;-34
2023/08/31 07:21:31;;;;;;;7.82;5.35;;;14.60;99.90;;;;;;4997096;28;89770;-35
2023/08/31 07:23:57;;;;;;;5.22;4.70;;;14.80;99.90;;;;;;4996313;28;90505;-35
2023/08/31 07:26:23;;;;;;;7.03;4.20;;;15.00;99.90;;;;;;4995951;28;88624;-34
2023/08/31 07:28:48;;;;;;;5.07;4.65;;;15.10;99.90;;;;;;4961378;28;90373;-36
2023/08/31 07:31:16;;;;;;;4.15;3.75;;;15.20;99.90;;;;;;4994714;28;88406;-34
2023/08/31 07:33:41;;;;;;;5.68;4.72;;;15.20;99.90;;;;;;4996797;28;89638;-38
2023/08/31 07:36:07;;;;;;;5.88;4.38;;;15.50;99.90;;;;;;4996271;28;90793;-38
2023/08/31 07:38:33;;;;;;;4.65;3.72;;;;;;;;;;4995712;28;90817;-34
2023/08/31 07:41:00;;;;;;;5.07;4.43;;;15.80;99.90;;;;;;4996856;28;87926;-33
2023/08/31 07:43:26;;;;;;;4.50;3.95;;;15.90;99.90;;;;;;4996735;28;90389;-35
2023/08/31 07:45:52;;;;;;;4.13;3.72;;;15.80;99.90;;;;;;4995056;28;89618;-35
2023/08/31 07:48:18;;;;;;;6.45;3.50;;;16.00;99.90;;;;;;4995930;28;88865;-35
2023/08/31 07:50:44;;;;;;;6.78;4.65;;;16.20;99.90;;;;;;4989079;28;89128;-37
2023/08/31 07:53:10;;;;;;;4.05;2.80;;;16.10;99.90;;;;;;4989117;28;90574;-37
2023/08/31 07:55:36;;;;;;;4.15;3.17;;;16.20;99.90;;;;;;4996152;28;88383;-35
2023/08/31 07:58:01;;;;;;;3.97;3.20;;;16.10;99.90;;;;;;4995963;28;89504;-37
2023/08/31 08:00:27;;;;;;;6.63;3.08;;;16.30;99.90;;;;;;4996195;28;90337;-37
2023/08/31 08:02:53;;;;;;;8.10;3.03;;;16.50;99.90;;;;;;4994979;28;89669;-36
2023/08/31 08:05:19;;;;;;;6.85;3.80;;;16.50;99.90;;;;;;4995881;28;89769;-36
2023/08/31 08:07:44;;;;;;;3.13;2.83;;;16.60;99.90;;;;;;4996587;28;90637;-35
2023/08/31 08:10:11;;;;;;;13.63;3.70;;;16.70;99.90;;;;;;4996157;28;88690;-35
2023/08/31 08:12:39;;;;;;;5.47;3.13;;;16.70;99.90;;;;;;4996088;28;90485;-35
2023/08/31 08:15:09;;;;;;;3.60;3.30;;;16.90;99.90;;;;;;4996648;28;89239;-34
2023/08/31 08:17:35;;;;;;;5.55;2.95;;;16.60;99.90;;;;;;4965506;28;90652;-35
2023/08/31 08:20:01;;;;;;;2.97;2.78;;;16.80;99.90;;;;;;4995519;28;88391;-36
2023/08/31 08:22:26;;;;;;;4.75;2.28;;;16.80;99.90;;;;;;4996436;28;90325;-33
2023/08/31 08:24:52;;;;;;;2.50;2.30;;;16.70;99.90;;;;;;4994195;28;90568;-35
2023/08/31 08:27:18;;;;;;;2.42;1.60;;;16.80;99.90;;;;;;4995131;28;89645;-33
2023/08/31 08:29:45;;;;;;;5.53;2.17;;;16.80;99.90;;;;;;5027390;22;89333;-37
2023/08/31 08:32:10;;;;;;;6.88;2.35;;;16.90;99.90;;;;;;4994759;28;90710;-37
2023/08/31 08:34:36;;;;;;;5.30;1.95;;;17.00;99.90;;;;;;4995992;28;89707;-37
2023/08/31 08:37:03;;;;;;;6.43;2.72;;;16.90;99.90;;;;;;4996072;28;89586;-36
2023/08/31 08:39:29;;;;;;;4.18;2.00;;;16.70;99.90;;;;;;4977024;28;88345;-34
2023/08/31 08:41:58;;;;;;;2.33;1.60;;;16.40;99.90;;;;;;4996300;28;89575;-35
2023/08/31 08:44:25;;;;;;;6.78;1.85;;;16.40;99.90;;;;;;4996197;28;89979;-32
2023/08/31 08:46:52;;;;;;;3.20;1.90;;;16.50;99.90;;;;;;4994190;28;90209;-36
2023/08/31 08:49:19;;;;;;;2.50;1.77;;;16.70;99.90;;;;;;4995176;28;89820;-34
2023/08/31 08:51:46;;;;;;;1.58;1.48;;;16.90;99.90;;;;;;4981178;28;89973;-35
2023/08/31 08:54:13;;;;;;;2.20;2.00;;;16.90;99.90;;;;;;4998846;28;89969;-35
2023/08/31 08:56:39;;;;;;;2.65;1.88;;;17.00;99.90;;;;;;4998075;28;89667;-35
2023/08/31 08:59:05;;;;;;;4.90;1.88;;;17.20;99.90;;;;;;4999468;28;89468;-36
2023/08/31 09:01:33;;;;;;;1.77;1.67;;;17.30;99.90;;;;;;4990469;28;90522;-33
2023/08/31 09:03:58;;;;;;;4.53;1.73;;;17.30;99.90;;;;;;4993537;28;89836;-37
2023/08/31 09:06:24;;;;;;;3.40;1.63;;;17.40;99.90;;;;;;4998873;28;89858;-37
2023/08/31 09:08:55;;;;;;;3.47;1.52;;;17.50;99.90;;;;;;4998239;28;89687;-34
2023/08/31 09:11:24;;;;;;;1.98;1.40;;;17.80;99.90;;;;;;4999350;28;90419;-35
2023/08/31 09:13:51;;;;;;;1.73;1.63;;;18.10;99.90;;;;;;4998402;28;90607;-34
2023/08/31 09:16:28;;;;;;;2.65;1.17;;;18.10;99.90;;;;;;4997910;28;90289;-34
2023/08/31 09:18:57;;;;;;;1.10;0.98;;;17.90;99.90;;;;;;4998817;28;88241;-34
2023/08/31 09:21:36;;;;;;;3.83;1.38;;;17.70;99.90;;;;;;4998573;28;89819;-34
2023/08/31 09:24:02;;;;;;;1.33;1.23;;;17.50;99.90;;;;;;4997961;28;89298;-34
2023/08/31 09:26:28;;;;;;;0.93;0.43;;;17.40;99.90;;;;;;4992042;28;89424;-38
2023/08/31 09:28:53;;;;;;;0.75;0.70;;;17.30;99.90;;;;;;4995896;28;88380;-36
2023/08/31 09:31:19;;;;;;;2.38;1.00;;;17.10;99.90;;;;;;4997307;28;90415;-33
2023/08/31 09:33:52;;;;;;;2.70;0.77;;;16.60;99.90;;;;;;4997122;28;89663;-36
2023/08/31 09:36:18;;;;;;;0.90;0.75;;;16.40;99.90;;;;;;4975639;28;89452;-36
2023/08/31 09:38:46;;;;;;;0.63;0.63;;;16.50;99.90;;;;;;4997629;28;89058;-34
2023/08/31 09:41:13;;;;;;;0.90;0.85;;;16.40;99.90;;;;;;4996514;28;90838;-37
2023/08/31 09:43:38;;;;;;;1.25;0.68;;;16.40;99.90;;;;;;4998127;28;89850;-37
2023/08/31 09:46:05;;;;;;;1.00;0.80;;;16.70;99.90;;;;;;4997418;28;90408;-37
2023/08/31 09:48:31;;;;;;;2.00;0.82;;;16.70;99.90;;;;;;4997981;28;89312;-36
2023/08/31 09:50:57;;;;;;;3.50;0.90;;;16.50;99.90;;;;;;4989609;28;90596;-34
2023/08/31 09:53:29;;;;;;;1.40;0.90;;;16.40;99.90;;;;;;4979387;28;89695;-35
2023/08/31 09:55:56;;;;;;;1.80;1.15;;;16.50;99.90;;;;;;4998407;28;89278;-36
2023/08/31 09:58:22;;;;;;;0.80;0.80;;;16.80;99.90;;;;;;4998330;28;88946;-34
2023/08/31 10:00:50;;;;;;;3.13;1.25;;;16.90;99.90;;;;;;4984761;28;90823;-37
2023/08/31 10:03:16;;;;;;;1.10;1.00;;;16.90;99.90;;;;;;4991264;28;90670;-35
2023/08/31 10:05:48;;;;;;;1.45;1.08;;;16.60;99.90;;;;;;4974954;28;90394;-36
2023/08/31 10:08:14;;;;;;;1.98;1.20;;;16.50;99.90;;;;;;4971728;28;89340;-34
2023/08/31 10:10:40;;;;;;;7.05;1.60;;;16.60;99.90;;;;;;4997177;28;90291;-33
2023/08/31 10:13:07;;;;;;;4.22;1.40;;;16.60;99.90;;;;;;4998262;28;91000;-36
2023/08/31 10:15:35;;;;;;;3.78;1.75;;;16.50;99.90;;;;;;4997396;28;89973;-34
2023/08/31 10:18:02;;;;;;;1.10;0.95;;;16.40;99.90;;;;;;4997900;28;89793;-35
2023/08/31 10:20:31;;;;;;;1.87;1.47;;;16.40;99.90;;;;;;4997138;28;89870;-34
2023/08/31 10:23:15;;;;;;;3.53;1.20;;;16.30;99.90;;;;;;4996837;28;90479;-36
2023/08/31 10:25:49;;;;;;;2.67;1.38;;;16.40;99.90;;;;;;4998099;28;89747;-36
2023/08/31 10:28:22;;;;;;;1.42;1.15;;;16.60;99.90;;;;;;4995982;28;92467;-34
2023/08/31 10:31:05;;;;;;;1.88;1.52;;;16.80;99.90;;;;;;4996348;28;91647;-36
2023/08/31 10:33:32;;;;;;;3.78;1.33;;;16.90;99.90;;;;;;4997297;28;90131;-36
2023/08/31 10:35:58;;;;;;;8.65;1.98;;;16.80;99.90;;;;;;4996978;28;89203;-37
2023/08/31 10:38:32;;;;;;;1.50;1.30;;;16.80;99.90;;;;;;4997111;28;89121;-34
2023/08/31 10:41:07;;;;;;;3.25;1.50;;;16.70;99.90;;;;;;4994278;28;90369;-33
2023/08/31 10:43:54;;;;;;;2.10;1.30;;;16.70;99.90;;;;;;4991854;28;89791;-34
2023/08/31 10:46:42;;;;;;;2.08;1.38;;;16.90;99.90;;;;;;4990832;28;89854;-32
2023/08/31 10:49:10;;;;;;;2.45;1.40;;;17.00;99.90;;;;;;4996105;28;89197;-37
2023/08/31 10:51:41;;;;;;;3.67;1.15;;;17.20;99.90;;;;;;4996037;28;89605;-34
2023/08/31 10:54:12;;;;;;;1.42;0.80;;;17.30;99.90;;;;;;4996508;28;90692;-34
2023/08/31 10:57:14;;;;;;;1.42;1.10;;;17.40;99.90;;;;;;4991505;28;89869;-35
2023/08/31 10:59:51;;;;;;;1.27;1.10;;;17.50;99.90;;;;;;4914517;28;90068;-35
2023/08/31 11:02:43;;;;;;;1.13;1.00;;;17.60;99.90;;;;;;4980592;28;91862;-35
2023/08/31 11:05:14;;;;;;;0.95;0.85;;;17.40;99.90;;;;;;4996233;28;89896;-37
2023/08/31 11:07:48;;;;;;;1.85;1.10;;;17.30;99.90;;;;;;4995995;28;89639;-33
2023/08/31 11:10:17;;;;;;;2.80;1.05;;;17.20;99.90;;;;;;4997087;28;88899;-35
2023/08/31 11:12:45;;;;;;;1.38;1.00;;;17.30;99.90;;;;;;4995595;28;90395;-35
2023/08/31 11:15:15;;;;;;;5.95;1.38;;;17.20;99.90;;;;;;4995867;28;89534;-34
2023/08/31 11:17:42;;;;;;;3.72;1.08;;;17.00;99.90;;;;;;4992076;28;90205;-35
2023/08/31 11:20:12;;;;;;;4.60;1.15;;;16.80;99.90;;;;;;4995935;28;90227;-37
2023/08/31 11:22:40;;;;;;;0.98;0.98;;;16.70;99.90;;;;;;4995795;28;89595;-36
2023/08/31 11:25:08;;;;;;;2.38;1.02;;;16.70;99.90;;;;;;4996281;28;91140;-34
2023/08/31 11:27:33;;;;;;;2.67;0.80;;;17.00;99.90;;;;;;4997219;28;89606;-34
2023/08/31 11:29:59;;;;;;;0.77;0.75;;;17.20;99.90;;;;;;4996025;28;89975;-34
2023/08/31 11:32:25;;;;;;;2.53;1.00;;;17.20;99.90;;;;;;4996212;28;90848;-35
2023/08/31 11:34:51;;;;;;;1.17;1.02;;;17.30;99.90;;;;;;4996393;28;89389;-35
2023/08/31 11:37:20;;;;;;;1.70;1.58;;;17.20;99.90;;;;;;4994803;28;89460;-37
2023/08/31 11:39:51;;;;;;;2.05;0.95;;;17.10;99.90;;;;;;4996791;28;88892;-36
2023/08/31 11:42:18;;;;;;;1.23;0.90;;;17.10;99.90;;;;;;4994747;28;89994;-36
2023/08/31 11:44:49;;;;;;;0.98;0.93;;;17.10;99.90;;;;;;4995213;28;90644;-35
2023/08/31 11:47:16;;;;;;;2.28;1.10;;;17.40;99.90;;;;;;4996070;28;90649;-35
2023/08/31 11:49:43;;;;;;;1.38;0.70;;;17.60;99.90;;;;;;4996682;28;88467;-34
2023/08/31 11:52:12;;;;;;;0.80;0.70;;;17.60;99.90;;;;;;4995132;28;89076;-36
2023/08/31 11:54:39;;;;;;;2.22;0.77;;;17.60;99.90;;;;;;4995003;28;88484;-35
2023/08/31 11:57:09;;;;;;;3.20;1.00;;;17.60;99.90;;;;;;4995742;28;89448;-34
2023/08/31 11:59:36;;;;;;;3.05;1.00;;;17.60;99.90;;;;;;4990319;28;89723;-34
2023/08/31 12:02:05;;;;;;;2.63;0.70;;;17.50;99.90;;;;;;4990564;28;90282;-36
2023/08/31 12:04:31;;;;;;;1.65;1.10;;;17.50;99.90;;;;;;4995782;28;89617;-37
2023/08/31 12:07:04;;;;;;;1.52;0.98;;;17.50;99.90;;;;;;4995591;28;89876;-33
2023/08/31 12:09:30;;;;;;;4.15;0.95;;;17.50;99.90;;;;;;4995645;28;89963;-35
2023/08/31 12:11:56;;;;;;;3.10;1.10;;;17.50;99.90;;;;;;4996565;28;89831;-37
2023/08/31 12:14:23;;;;;;;3.28;1.05;;;17.60;99.90;;;;;;4994237;28;89650;-37
2023/08/31 12:16:50;;;;;;;1.97;0.90;;;17.80;99.90;;;;;;4984097;28;89421;-36
2023/08/31 12:19:16;;;;;;;6.47;1.13;;;18.10;99.90;;;;;;4995970;28;89890;-35
2023/08/31 12:21:46;;;;;;;1.58;1.20;;;18.20;99.90;;;;;;4994860;28;90282;-35
2023/08/31 12:24:12;;;;;;;0.82;0.80;;;18.40;99.90;;;;;;4983506;28;89117;-33
2023/08/31 12:26:38;;;;;;;2.88;0.90;;;18.50;99.90;;;;;;4999547;28;88904;-36
2023/08/31 12:29:04;;;;;;;2.70;1.33;;;18.70;99.90;;;;;;4990488;28;88864;-36
2023/08/31 12:31:30;;;;;;;5.80;1.25;;;18.70;99.90;;;;;;4991131;28;89554;-38
2023/08/31 12:33:56;;;;;;;5.07;0.88;;;18.60;99.90;;;;;;4996551;28;90383;-37
2023/08/31 12:36:21;;;;;;;2.00;1.00;;;18.60;99.90;;;;;;4984013;28;90546;-33
2023/08/31 12:38:47;;;;;;;1.63;0.98;;;18.40;99.90;;;;;;4992337;28;89260;-36
2023/08/31 12:41:13;;;;;;;4.15;1.10;;;18.40;99.90;;;;;;4990360;28;90129;-38
2023/08/31 12:43:38;;;;;;;1.77;1.27;;;18.10;99.90;;;;;;4986377;28;89779;-36
2023/08/31 12:46:05;;;;;;;1.85;1.08;;;17.90;99.90;;;;;;4990968;28;90384;-37
2023/08/31 12:48:34;;;;;;;2.85;1.63;;;17.80;99.90;;;;;;4998583;28;89025;-36